sensor_id;sensor_type;location;lat;lon;timestamp;pressure;altitude;pressure_sealevel;temperature;humidity
25664;BME280;13522;50.018;20.014;2023-03-23T00:00:47;98368.20;;;11.49;87.61
25664;BME280;13522;50.018;20.014;2023-03-23T00:04:00;98369.18;;;11.48;87.33
25664;BME280;13522;50.018;20.014;2023-03-23T00:07:13;98368.46;;;11.38;87.66
25664;BME280;13522;50.018;20.014;2023-03-23T00:10:27;98372.14;;;11.11;89.60
25664;BME280;13522;50.018;20.014;2023-03-23T00:13:39;98367.91;;;11.00;90.76
25664;BME280;13522;50.018;20.014;2023-03-23T00:16:52;98369.23;;;10.79;92.19
25664;BME280;13522;50.018;20.014;2023-03-23T00:20:06;98366.80;;;10.68;92.84
25664;BME280;13522;50.018;20.014;2023-03-23T00:23:21;98374.57;;;10.61;94.38
25664;BME280;13522;50.018;20.014;2023-03-23T00:26:35;98370.48;;;10.49;94.49
25664;BME280;13522;50.018;20.014;2023-03-23T00:29:52;98366.30;;;10.46;96.03
25664;BME280;13522;50.018;20.014;2023-03-23T00:33:05;98369.72;;;10.39;95.79
25664;BME280;13522;50.018;20.014;2023-03-23T00:36:25;98364.17;;;10.32;96.83
25664;BME280;13522;50.018;20.014;2023-03-23T00:39:50;98358.09;;;10.22;98.20
25664;BME280;13522;50.018;20.014;2023-03-23T00:43:04;98364.85;;;10.17;97.13
25664;BME280;13522;50.018;20.014;2023-03-23T00:46:18;98358.48;;;10.10;96.35
25664;BME280;13522;50.018;20.014;2023-03-23T00:49:31;98352.06;;;10.03;100.00
25664;BME280;13522;50.018;20.014;2023-03-23T00:52:44;98351.85;;;9.96;99.49
25664;BME280;13522;50.018;20.014;2023-03-23T00:55:59;98351.29;;;9.93;100.00
25664;BME280;13522;50.018;20.014;2023-03-23T00:59:18;98360.53;;;9.89;100.00
25664;BME280;13522;50.018;20.014;2023-03-23T01:02:57;98350.52;;;9.83;100.00
25664;BME280;13522;50.018;20.014;2023-03-23T01:06:11;98351.26;;;9.75;100.00
25664;BME280;13522;50.018;20.014;2023-03-23T01:09:23;98348.52;;;9.67;100.00
25664;BME280;13522;50.018;20.014;2023-03-23T01:12:36;98355.40;;;9.60;100.00
25664;BME280;13522;50.018;20.014;2023-03-23T01:15:48;98349.56;;;9.56;100.00
25664;BME280;13522;50.018;20.014;2023-03-23T01:19:03;98352.11;;;9.48;100.00
25664;BME280;13522;50.018;20.014;2023-03-23T01:22:15;98355.19;;;9.44;100.00
25664;BME280;13522;50.018;20.014;2023-03-23T01:25:28;98344.86;;;9.41;100.00
25664;BME280;13522;50.018;20.014;2023-03-23T01:28:42;98347.28;;;9.34;100.00
25664;BME280;13522;50.018;20.014;2023-03-23T01:31:55;98346.05;;;9.29;100.00
25664;BME280;13522;50.018;20.014;2023-03-23T01:35:09;98342.15;;;9.23;100.00
25664;BME280;13522;50.018;20.014;2023-03-23T01:38:22;98352.36;;;9.18;100.00
25664;BME280;13522;50.018;20.014;2023-03-23T01:41:35;98349.44;;;9.12;100.00
25664;BME280;13522;50.018;20.014;2023-03-23T01:45:25;98348.91;;;9.08;100.00
25664;BME280;13522;50.018;20.014;2023-03-23T01:48:41;98348.78;;;9.00;100.00
25664;BME280;13522;50.018;20.014;2023-03-23T01:51:56;98354.39;;;8.97;100.00
25664;BME280;13522;50.018;20.014;2023-03-23T01:55:12;98353.69;;;8.95;100.00
25664;BME280;13522;50.018;20.014;2023-03-23T01:58:27;98352.70;;;8.96;100.00
25664;BME280;13522;50.018;20.014;2023-03-23T02:01:42;98355.34;;;8.96;100.00
25664;BME280;13522;50.018;20.014;2023-03-23T02:05:01;98353.39;;;8.98;100.00
25664;BME280;13522;50.018;20.014;2023-03-23T02:08:19;98334.04;;;8.88;100.00
25664;BME280;13522;50.018;20.014;2023-03-23T02:11:33;98351.05;;;8.95;100.00
25664;BME280;13522;50.018;20.014;2023-03-23T02:14:46;98350.89;;;8.97;100.00
25664;BME280;13522;50.018;20.014;2023-03-23T02:18:03;98352.42;;;8.90;100.00
25664;BME280;13522;50.018;20.014;2023-03-23T02:21:34;98355.50;;;8.95;100.00
25664;BME280;13522;50.018;20.014;2023-03-23T02:25:03;98353.24;;;9.00;100.00
25664;BME280;13522;50.018;20.014;2023-03-23T02:28:37;98357.03;;;8.97;100.00
25664;BME280;13522;50.018;20.014;2023-03-23T02:32:10;98355.92;;;8.90;100.00
25664;BME280;13522;50.018;20.014;2023-03-23T02:35:28;98355.52;;;8.85;100.00
25664;BME280;13522;50.018;20.014;2023-03-23T02:38:44;98361.78;;;8.84;100.00
25664;BME280;13522;50.018;20.014;2023-03-23T02:42:04;98357.59;;;8.82;100.00
25664;BME280;13522;50.018;20.014;2023-03-23T02:45:20;98356.20;;;8.78;100.00
25664;BME280;13522;50.018;20.014;2023-03-23T02:48:34;98352.45;;;8.80;100.00
25664;BME280;13522;50.018;20.014;2023-03-23T02:51:49;98353.56;;;8.87;100.00
25664;BME280;13522;50.018;20.014;2023-03-23T02:55:06;98344.75;;;8.96;100.00
25664;BME280;13522;50.018;20.014;2023-03-23T02:58:20;98347.79;;;9.11;100.00
25664;BME280;13522;50.018;20.014;2023-03-23T03:01:57;98343.19;;;9.13;100.00
25664;BME280;13522;50.018;20.014;2023-03-23T03:05:17;98341.92;;;9.17;100.00
25664;BME280;13522;50.018;20.014;2023-03-23T03:08:39;98342.15;;;9.23;100.00
25664;BME280;13522;50.018;20.014;2023-03-23T03:11:58;98329.16;;;9.30;100.00
25664;BME280;13522;50.018;20.014;2023-03-23T03:15:20;98335.16;;;9.32;100.00
25664;BME280;13522;50.018;20.014;2023-03-23T03:18:39;98327.05;;;9.33;100.00
25664;BME280;13522;50.018;20.014;2023-03-23T03:21:56;98320.94;;;9.33;100.00
25664;BME280;13522;50.018;20.014;2023-03-23T03:25:14;98326.77;;;9.36;100.00
25664;BME280;13522;50.018;20.014;2023-03-23T03:28:31;98318.13;;;9.34;100.00
25664;BME280;13522;50.018;20.014;2023-03-23T03:31:46;98317.83;;;9.37;100.00
25664;BME280;13522;50.018;20.014;2023-03-23T03:35:05;98315.86;;;9.39;100.00
25664;BME280;13522;50.018;20.014;2023-03-23T03:38:18;98321.17;;;9.39;100.00
25664;BME280;13522;50.018;20.014;2023-03-23T03:41:32;98313.22;;;9.39;100.00
25664;BME280;13522;50.018;20.014;2023-03-23T03:44:44;98320.05;;;9.42;100.00
25664;BME280;13522;50.018;20.014;2023-03-23T03:47:57;98322.28;;;9.37;100.00
25664;BME280;13522;50.018;20.014;2023-03-23T03:51:11;98322.69;;;9.15;100.00
25664;BME280;13522;50.018;20.014;2023-03-23T03:54:26;98311.89;;;8.89;100.00
25664;BME280;13522;50.018;20.014;2023-03-23T03:57:39;98314.84;;;8.77;100.00
25664;BME280;13522;50.018;20.014;2023-03-23T04:00:54;98317.91;;;8.72;100.00
25664;BME280;13522;50.018;20.014;2023-03-23T04:04:08;98316.39;;;8.60;100.00
25664;BME280;13522;50.018;20.014;2023-03-23T04:07:21;98313.48;;;8.44;100.00
25664;BME280;13522;50.018;20.014;2023-03-23T04:10:36;98310.30;;;8.31;100.00
25664;BME280;13522;50.018;20.014;2023-03-23T04:13:51;98312.63;;;8.24;100.00
25664;BME280;13522;50.018;20.014;2023-03-23T04:17:06;98318.36;;;8.20;100.00
25664;BME280;13522;50.018;20.014;2023-03-23T04:20:21;98323.36;;;8.23;100.00
25664;BME280;13522;50.018;20.014;2023-03-23T04:23:36;98312.78;;;8.23;100.00
25664;BME280;13522;50.018;20.014;2023-03-23T04:26:49;98309.17;;;8.24;100.00
25664;BME280;13522;50.018;20.014;2023-03-23T04:30:07;98308.65;;;8.30;100.00
25664;BME280;13522;50.018;20.014;2023-03-23T04:33:24;98308.75;;;8.38;100.00
25664;BME280;13522;50.018;20.014;2023-03-23T04:36:39;98308.09;;;8.36;100.00
25664;BME280;13522;50.018;20.014;2023-03-23T04:39:54;98314.48;;;8.43;100.00
25664;BME280;13522;50.018;20.014;2023-03-23T04:43:12;98313.07;;;8.48;100.00
25664;BME280;13522;50.018;20.014;2023-03-23T04:46:38;98316.13;;;8.63;100.00
25664;BME280;13522;50.018;20.014;2023-03-23T04:49:51;98316.38;;;8.79;100.00
25664;BME280;13522;50.018;20.014;2023-03-23T04:53:10;98309.36;;;8.97;100.00
25664;BME280;13522;50.018;20.014;2023-03-23T04:56:24;98319.08;;;9.06;100.00
25664;BME280;13522;50.018;20.014;2023-03-23T04:59:38;98318.38;;;9.04;100.00
25664;BME280;13522;50.018;20.014;2023-03-23T05:02:53;98323.75;;;8.85;100.00
25664;BME280;13522;50.018;20.014;2023-03-23T05:06:08;98327.97;;;8.59;100.00
25664;BME280;13522;50.018;20.014;2023-03-23T05:09:21;98326.59;;;8.55;100.00
25664;BME280;13522;50.018;20.014;2023-03-23T05:12:33;98339.81;;;8.55;100.00
25664;BME280;13522;50.018;20.014;2023-03-23T05:15:48;98340.92;;;8.52;100.00
25664;BME280;13522;50.018;20.014;2023-03-23T05:19:01;98335.34;;;8.46;100.00
25664;BME280;13522;50.018;20.014;2023-03-23T05:22:14;98331.75;;;8.47;100.00
25664;BME280;13522;50.018;20.014;2023-03-23T05:25:27;98338.56;;;8.59;100.00
25664;BME280;13522;50.018;20.014;2023-03-23T05:28:44;98331.44;;;8.69;100.00
25664;BME280;13522;50.018;20.014;2023-03-23T05:32:00;98334.22;;;8.77;100.00
25664;BME280;13522;50.018;20.014;2023-03-23T05:35:14;98331.55;;;8.87;100.00
25664;BME280;13522;50.018;20.014;2023-03-23T05:38:29;98325.95;;;8.90;100.00
25664;BME280;13522;50.018;20.014;2023-03-23T05:41:42;98328.86;;;8.96;100.00
25664;BME280;13522;50.018;20.014;2023-03-23T05:44:57;98327.87;;;9.07;100.00
25664;BME280;13522;50.018;20.014;2023-03-23T05:48:10;98332.39;;;9.24;100.00
25664;BME280;13522;50.018;20.014;2023-03-23T05:51:23;98328.94;;;9.50;100.00
25664;BME280;13522;50.018;20.014;2023-03-23T05:54:35;98323.71;;;9.86;100.00
25664;BME280;13522;50.018;20.014;2023-03-23T05:57:48;98321.34;;;10.27;99.67
25664;BME280;13522;50.018;20.014;2023-03-23T06:01:09;98324.64;;;10.65;98.05
25664;BME280;13522;50.018;20.014;2023-03-23T06:04:26;98329.13;;;10.90;96.41
25664;BME280;13522;50.018;20.014;2023-03-23T06:07:41;98333.69;;;11.31;95.40
25664;BME280;13522;50.018;20.014;2023-03-23T06:10:54;98324.19;;;11.96;91.63
25664;BME280;13522;50.018;20.014;2023-03-23T06:14:07;98318.76;;;12.30;92.42
25664;BME280;13522;50.018;20.014;2023-03-23T06:17:20;98317.59;;;12.64;90.38
25664;BME280;13522;50.018;20.014;2023-03-23T06:20:33;98316.91;;;13.11;89.80
25664;BME280;13522;50.018;20.014;2023-03-23T06:23:53;98303.22;;;13.68;83.86
25664;BME280;13522;50.018;20.014;2023-03-23T06:27:08;98298.67;;;14.30;77.88
25664;BME280;13522;50.018;20.014;2023-03-23T06:30:23;98281.55;;;14.99;75.54
25664;BME280;13522;50.018;20.014;2023-03-23T06:33:37;98278.05;;;15.57;71.66
25664;BME280;13522;50.018;20.014;2023-03-23T06:37:00;98281.39;;;15.95;70.72
25664;BME280;13522;50.018;20.014;2023-03-23T06:40:21;98268.12;;;15.87;68.94
25664;BME280;13522;50.018;20.014;2023-03-23T06:43:36;98284.34;;;15.64;69.73
25664;BME280;13522;50.018;20.014;2023-03-23T06:46:52;98281.60;;;15.43;70.71
25664;BME280;13522;50.018;20.014;2023-03-23T06:50:08;98280.08;;;15.70;70.26
25664;BME280;13522;50.018;20.014;2023-03-23T06:53:21;98276.29;;;16.57;66.20
25664;BME280;13522;50.018;20.014;2023-03-23T06:56:35;98275.67;;;17.44;64.68
25664;BME280;13522;50.018;20.014;2023-03-23T06:59:47;98271.44;;;17.56;62.58
25664;BME280;13522;50.018;20.014;2023-03-23T07:03:01;98274.00;;;17.43;62.79
25664;BME280;13522;50.018;20.014;2023-03-23T07:06:16;98266.63;;;17.92;62.85
25664;BME280;13522;50.018;20.014;2023-03-23T07:09:31;98278.05;;;18.20;60.83
25664;BME280;13522;50.018;20.014;2023-03-23T07:12:45;98278.87;;;18.08;61.10
25664;BME280;13522;50.018;20.014;2023-03-23T07:15:58;98280.75;;;18.14;59.15
25664;BME280;13522;50.018;20.014;2023-03-23T07:19:11;98282.42;;;18.35;60.60
25664;BME280;13522;50.018;20.014;2023-03-23T07:22:23;98273.97;;;18.38;60.53
25664;BME280;13522;50.018;20.014;2023-03-23T07:25:39;98275.19;;;18.22;59.99
25664;BME280;13522;50.018;20.014;2023-03-23T07:28:56;98271.97;;;17.86;60.19
25664;BME280;13522;50.018;20.014;2023-03-23T07:32:13;98273.05;;;17.98;59.96
25664;BME280;13522;50.018;20.014;2023-03-23T07:35:26;98276.78;;;18.03;60.12
25664;BME280;13522;50.018;20.014;2023-03-23T07:38:41;98273.88;;;17.98;60.01
25664;BME280;13522;50.018;20.014;2023-03-23T07:41:54;98276.78;;;18.03;60.54
25664;BME280;13522;50.018;20.014;2023-03-23T07:45:11;98278.42;;;18.04;59.98
25664;BME280;13522;50.018;20.014;2023-03-23T07:48:23;98273.91;;;18.11;58.81
25664;BME280;13522;50.018;20.014;2023-03-23T07:51:36;98273.05;;;18.04;58.17
25664;BME280;13522;50.018;20.014;2023-03-23T07:54:50;98276.69;;;17.77;59.16
25664;BME280;13522;50.018;20.014;2023-03-23T07:58:18;98279.78;;;17.81;59.73
25664;BME280;13522;50.018;20.014;2023-03-23T08:01:33;98278.51;;;18.37;58.38
25664;BME280;13522;50.018;20.014;2023-03-23T08:05:05;98272.70;;;18.40;57.20
25664;BME280;13522;50.018;20.014;2023-03-23T08:08:23;98275.16;;;18.15;56.91
25664;BME280;13522;50.018;20.014;2023-03-23T08:11:54;98273.08;;;18.11;58.54
25664;BME280;13522;50.018;20.014;2023-03-23T08:15:25;98276.36;;;18.00;58.46
25664;BME280;13522;50.018;20.014;2023-03-23T08:18:39;98284.18;;;17.88;58.26
25664;BME280;13522;50.018;20.014;2023-03-23T08:21:54;98285.70;;;17.63;57.54
25664;BME280;13522;50.018;20.014;2023-03-23T08:25:13;98289.27;;;17.36;58.52
25664;BME280;13522;50.018;20.014;2023-03-23T08:28:39;98293.52;;;17.24;59.20
25664;BME280;13522;50.018;20.014;2023-03-23T08:32:13;98299.45;;;17.13;59.64
25664;BME280;13522;50.018;20.014;2023-03-23T08:35:44;98294.74;;;16.94;60.74
25664;BME280;13522;50.018;20.014;2023-03-23T08:39:00;98292.84;;;16.88;61.70
25664;BME280;13522;50.018;20.014;2023-03-23T08:42:25;98297.07;;;16.76;61.52
25664;BME280;13522;50.018;20.014;2023-03-23T08:45:40;98299.52;;;16.71;62.50
25664;BME280;13522;50.018;20.014;2023-03-23T08:49:05;98297.61;;;16.65;62.68
25664;BME280;13522;50.018;20.014;2023-03-23T08:52:26;98293.92;;;16.66;63.25
25664;BME280;13522;50.018;20.014;2023-03-23T08:56:04;98296.13;;;16.62;63.50
25664;BME280;13522;50.018;20.014;2023-03-23T08:59:23;98293.14;;;16.51;63.31
25664;BME280;13522;50.018;20.014;2023-03-23T09:02:43;98289.33;;;16.60;63.32
25664;BME280;13522;50.018;20.014;2023-03-23T09:06:03;98290.47;;;16.72;63.78
25664;BME280;13522;50.018;20.014;2023-03-23T09:09:23;98290.56;;;16.85;63.60
25664;BME280;13522;50.018;20.014;2023-03-23T09:12:35;98290.79;;;16.90;62.96
25664;BME280;13522;50.018;20.014;2023-03-23T09:15:48;98290.50;;;17.06;61.92
25664;BME280;13522;50.018;20.014;2023-03-23T09:19:01;98286.66;;;17.15;61.08
25664;BME280;13522;50.018;20.014;2023-03-23T09:22:15;98290.00;;;17.23;61.29
25664;BME280;13522;50.018;20.014;2023-03-23T09:25:30;98270.85;;;17.67;60.93
25664;BME280;13522;50.018;20.014;2023-03-23T09:28:42;98288.63;;;18.29;58.53
25664;BME280;13522;50.018;20.014;2023-03-23T09:31:54;98287.41;;;18.38;56.89
25664;BME280;13522;50.018;20.014;2023-03-23T09:35:09;98287.59;;;18.36;56.48
25664;BME280;13522;50.018;20.014;2023-03-23T09:38:22;98285.13;;;18.28;56.39
25664;BME280;13522;50.018;20.014;2023-03-23T09:41:51;98278.86;;;18.14;56.57
25664;BME280;13522;50.018;20.014;2023-03-23T09:45:25;98278.89;;;18.21;54.90
25664;BME280;13522;50.018;20.014;2023-03-23T09:48:45;98280.16;;;18.32;55.51
25664;BME280;13522;50.018;20.014;2023-03-23T09:52:03;98265.91;;;18.38;53.38
25664;BME280;13522;50.018;20.014;2023-03-23T09:55:21;98260.99;;;18.67;52.73
25664;BME280;13522;50.018;20.014;2023-03-23T09:58:37;98255.76;;;19.12;53.11
25664;BME280;13522;50.018;20.014;2023-03-23T10:01:57;98246.41;;;19.47;50.97
25664;BME280;13522;50.018;20.014;2023-03-23T10:05:30;98254.95;;;19.81;48.58
25664;BME280;13522;50.018;20.014;2023-03-23T10:08:48;98244.27;;;21.54;45.78
25664;BME280;13522;50.018;20.014;2023-03-23T10:12:07;98238.80;;;21.61;45.12
25664;BME280;13522;50.018;20.014;2023-03-23T10:15:38;98239.78;;;21.84;41.26
25664;BME280;13522;50.018;20.014;2023-03-23T10:18:54;98233.58;;;21.77;41.73
25664;BME280;13522;50.018;20.014;2023-03-23T10:22:13;98230.13;;;22.48;40.51
25664;BME280;13522;50.018;20.014;2023-03-23T10:25:29;98223.27;;;23.09;38.87
25664;BME280;13522;50.018;20.014;2023-03-23T10:28:47;98227.22;;;23.93;38.36
25664;BME280;13522;50.018;20.014;2023-03-23T10:32:11;98218.59;;;23.68;36.34
25664;BME280;13522;50.018;20.014;2023-03-23T10:35:24;98218.50;;;23.63;36.98
25664;BME280;13522;50.018;20.014;2023-03-23T10:38:43;98218.42;;;23.86;36.43
25664;BME280;13522;50.018;20.014;2023-03-23T10:41:59;98199.36;;;23.69;36.16
25664;BME280;13522;50.018;20.014;2023-03-23T10:45:21;98206.85;;;23.90;36.28
25664;BME280;13522;50.018;20.014;2023-03-23T10:48:38;98201.59;;;24.12;36.50
25664;BME280;13522;50.018;20.014;2023-03-23T10:51:53;98192.91;;;24.43;35.17
25664;BME280;13522;50.018;20.014;2023-03-23T10:55:11;98192.48;;;24.18;34.40
25664;BME280;13522;50.018;20.014;2023-03-23T10:58:28;98188.86;;;24.01;35.31
25664;BME280;13522;50.018;20.014;2023-03-23T11:01:44;98193.02;;;23.64;35.78
25664;BME280;13522;50.018;20.014;2023-03-23T11:05:01;98189.30;;;23.42;36.13
25664;BME280;13522;50.018;20.014;2023-03-23T11:08:20;98190.22;;;23.87;35.76
25664;BME280;13522;50.018;20.014;2023-03-23T11:11:38;98188.13;;;23.77;34.91
25664;BME280;13522;50.018;20.014;2023-03-23T11:14:52;98176.58;;;23.42;34.23
25664;BME280;13522;50.018;20.014;2023-03-23T11:18:19;98170.16;;;23.60;34.19
25664;BME280;13522;50.018;20.014;2023-03-23T11:21:34;98169.78;;;23.68;33.72
25664;BME280;13522;50.018;20.014;2023-03-23T11:24:51;98171.75;;;23.44;32.76
25664;BME280;13522;50.018;20.014;2023-03-23T11:28:04;98168.92;;;24.07;32.88
25664;BME280;13522;50.018;20.014;2023-03-23T11:31:22;98179.41;;;23.24;32.66
25664;BME280;13522;50.018;20.014;2023-03-23T11:34:41;98183.58;;;23.03;33.10
25664;BME280;13522;50.018;20.014;2023-03-23T11:37:56;98187.58;;;23.01;33.50
25664;BME280;13522;50.018;20.014;2023-03-23T11:41:16;98159.88;;;23.10;33.36
25664;BME280;13522;50.018;20.014;2023-03-23T11:44:40;98162.45;;;23.28;33.30
25664;BME280;13522;50.018;20.014;2023-03-23T11:48:10;98140.67;;;23.63;33.77
25664;BME280;13522;50.018;20.014;2023-03-23T11:51:29;98159.31;;;23.60;33.79
25664;BME280;13522;50.018;20.014;2023-03-23T11:54:46;98165.45;;;22.81;34.63
25664;BME280;13522;50.018;20.014;2023-03-23T11:58:00;98164.86;;;22.67;35.06
25664;BME280;13522;50.018;20.014;2023-03-23T12:01:21;98168.56;;;22.43;35.72
25664;BME280;13522;50.018;20.014;2023-03-23T12:05:01;98161.14;;;22.38;36.79
25664;BME280;13522;50.018;20.014;2023-03-23T12:08:42;98162.79;;;22.28;36.92
25664;BME280;13522;50.018;20.014;2023-03-23T12:12:07;98163.04;;;21.97;37.53
25664;BME280;13522;50.018;20.014;2023-03-23T12:15:38;98159.38;;;21.43;37.46
25664;BME280;13522;50.018;20.014;2023-03-23T12:18:47;98162.48;;;21.29;38.33
25664;BME280;13522;50.018;20.014;2023-03-23T12:22:08;98164.95;;;21.12;38.48
25664;BME280;13522;50.018;20.014;2023-03-23T12:29:34;98162.06;;;20.89;39.63
25664;BME280;13522;50.018;20.014;2023-03-23T12:33:11;98168.88;;;20.73;39.81
25664;BME280;13522;50.018;20.014;2023-03-23T12:36:39;98166.79;;;20.51;39.82
25664;BME280;13522;50.018;20.014;2023-03-23T12:43:50;98171.36;;;20.26;41.19
25664;BME280;13522;50.018;20.014;2023-03-23T12:47:16;98176.15;;;20.24;41.28
25664;BME280;13522;50.018;20.014;2023-03-23T12:50:45;98168.70;;;20.19;42.08
25664;BME280;13522;50.018;20.014;2023-03-23T12:54:07;98162.55;;;20.06;42.21
25664;BME280;13522;50.018;20.014;2023-03-23T12:57:23;98165.67;;;20.03;42.75
25664;BME280;13522;50.018;20.014;2023-03-23T13:00:52;98165.73;;;19.96;42.73
25664;BME280;13522;50.018;20.014;2023-03-23T13:04:09;98168.91;;;19.86;43.34
25664;BME280;13522;50.018;20.014;2023-03-23T13:07:26;98163.55;;;19.80;43.50
25664;BME280;13522;50.018;20.014;2023-03-23T13:10:44;98172.27;;;19.75;43.54
25664;BME280;13522;50.018;20.014;2023-03-23T13:14:02;98167.75;;;19.69;44.02
25664;BME280;13522;50.018;20.014;2023-03-23T13:17:26;98169.05;;;19.60;44.34
25664;BME280;13522;50.018;20.014;2023-03-23T13:21:00;98169.47;;;19.57;45.15
25664;BME280;13522;50.018;20.014;2023-03-23T13:24:20;98164.13;;;19.51;44.87
25664;BME280;13522;50.018;20.014;2023-03-23T13:27:35;98170.38;;;19.45;45.51
25664;BME280;13522;50.018;20.014;2023-03-23T13:30:59;98162.48;;;19.43;46.04
25664;BME280;13522;50.018;20.014;2023-03-23T13:34:18;98166.23;;;19.42;46.43
25664;BME280;13522;50.018;20.014;2023-03-23T13:37:32;98161.70;;;19.36;46.56
25664;BME280;13522;50.018;20.014;2023-03-23T13:40:46;98155.07;;;19.26;46.73
25664;BME280;13522;50.018;20.014;2023-03-23T13:44:18;98158.19;;;19.29;47.01
25664;BME280;13522;50.018;20.014;2023-03-23T13:47:39;98160.89;;;19.29;47.25
25664;BME280;13522;50.018;20.014;2023-03-23T13:50:56;98158.80;;;19.31;47.78
25664;BME280;13522;50.018;20.014;2023-03-23T13:54:20;98160.05;;;19.29;47.70
25664;BME280;13522;50.018;20.014;2023-03-23T13:57:48;98170.84;;;19.22;47.82
25664;BME280;13522;50.018;20.014;2023-03-23T14:01:13;98166.30;;;19.16;48.32
25664;BME280;13522;50.018;20.014;2023-03-23T14:04:31;98161.53;;;19.18;48.48
25664;BME280;13522;50.018;20.014;2023-03-23T14:07:56;98165.05;;;19.19;48.52
25664;BME280;13522;50.018;20.014;2023-03-23T14:11:19;98164.42;;;19.23;48.77
25664;BME280;13522;50.018;20.014;2023-03-23T14:14:40;98166.47;;;19.34;49.06
25664;BME280;13522;50.018;20.014;2023-03-23T14:17:52;98151.75;;;19.30;49.27
25664;BME280;13522;50.018;20.014;2023-03-23T14:21:13;98154.66;;;19.29;48.42
25664;BME280;13522;50.018;20.014;2023-03-23T14:24:28;98142.05;;;19.23;48.74
25664;BME280;13522;50.018;20.014;2023-03-23T14:27:42;98147.23;;;19.18;49.05
25664;BME280;13522;50.018;20.014;2023-03-23T14:30:56;98140.21;;;19.17;48.76
25664;BME280;13522;50.018;20.014;2023-03-23T14:34:13;98143.53;;;19.12;48.89
25664;BME280;13522;50.018;20.014;2023-03-23T14:37:28;98137.13;;;19.13;48.64
25664;BME280;13522;50.018;20.014;2023-03-23T14:40:42;98139.38;;;19.16;49.10
25664;BME280;13522;50.018;20.014;2023-03-23T14:43:55;98138.35;;;19.17;49.46
25664;BME280;13522;50.018;20.014;2023-03-23T14:47:10;98138.97;;;19.19;49.61
25664;BME280;13522;50.018;20.014;2023-03-23T14:50:28;98145.61;;;19.10;49.46
25664;BME280;13522;50.018;20.014;2023-03-23T14:53:44;98149.13;;;19.11;49.48
25664;BME280;13522;50.018;20.014;2023-03-23T14:57:09;98147.28;;;19.11;49.44
25664;BME280;13522;50.018;20.014;2023-03-23T15:00:28;98141.89;;;19.11;49.85
25664;BME280;13522;50.018;20.014;2023-03-23T15:03:51;98135.69;;;19.04;49.56
25664;BME280;13522;50.018;20.014;2023-03-23T15:07:02;98140.66;;;19.07;50.02
25664;BME280;13522;50.018;20.014;2023-03-23T15:10:18;98134.67;;;19.05;49.50
25664;BME280;13522;50.018;20.014;2023-03-23T15:13:32;98135.28;;;19.07;49.94
25664;BME280;13522;50.018;20.014;2023-03-23T15:16:49;98136.92;;;19.08;50.18
25664;BME280;13522;50.018;20.014;2023-03-23T15:20:17;98141.91;;;19.04;50.39
25664;BME280;13522;50.018;20.014;2023-03-23T15:23:32;98143.99;;;18.96;50.84
25664;BME280;13522;50.018;20.014;2023-03-23T15:26:45;98137.38;;;18.92;50.91
25664;BME280;13522;50.018;20.014;2023-03-23T15:29:58;98141.53;;;18.88;50.70
25664;BME280;13522;50.018;20.014;2023-03-23T15:33:14;98137.81;;;18.89;50.50
25664;BME280;13522;50.018;20.014;2023-03-23T15:36:33;98144.05;;;18.83;50.87
25664;BME280;13522;50.018;20.014;2023-03-23T15:39:47;98144.26;;;18.81;50.79
25664;BME280;13522;50.018;20.014;2023-03-23T15:43:14;98152.52;;;18.80;50.81
25664;BME280;13522;50.018;20.014;2023-03-23T15:46:28;98144.88;;;18.77;51.30
25664;BME280;13522;50.018;20.014;2023-03-23T15:49:41;98135.80;;;18.71;51.58
25664;BME280;13522;50.018;20.014;2023-03-23T15:52:56;98133.29;;;18.70;51.37
25664;BME280;13522;50.018;20.014;2023-03-23T15:56:10;98135.36;;;18.68;51.60
25664;BME280;13522;50.018;20.014;2023-03-23T15:59:24;98133.33;;;18.63;51.92
25664;BME280;13522;50.018;20.014;2023-03-23T16:02:36;98143.69;;;18.60;52.56
25664;BME280;13522;50.018;20.014;2023-03-23T16:05:50;98137.06;;;18.56;52.38
25664;BME280;13522;50.018;20.014;2023-03-23T16:09:06;98139.14;;;18.54;53.00
25664;BME280;13522;50.018;20.014;2023-03-23T16:12:21;98143.68;;;18.47;52.61
25664;BME280;13522;50.018;20.014;2023-03-23T16:15:34;98145.75;;;18.45;52.89
25664;BME280;13522;50.018;20.014;2023-03-23T16:18:47;98144.48;;;18.41;53.06
25664;BME280;13522;50.018;20.014;2023-03-23T16:21:59;98148.61;;;18.37;53.36
25664;BME280;13522;50.018;20.014;2023-03-23T16:25:12;98142.83;;;18.33;52.82
25664;BME280;13522;50.018;20.014;2023-03-23T16:28:25;98138.69;;;18.31;53.12
25664;BME280;13522;50.018;20.014;2023-03-23T16:31:37;98137.05;;;18.30;51.30
25664;BME280;13522;50.018;20.014;2023-03-23T16:34:50;98134.98;;;18.32;51.48
25664;BME280;13522;50.018;20.014;2023-03-23T16:38:03;98132.69;;;18.29;50.75
25664;BME280;13522;50.018;20.014;2023-03-23T16:41:16;98137.05;;;18.30;50.56
25664;BME280;13522;50.018;20.014;2023-03-23T16:44:28;98133.13;;;18.26;50.52
25664;BME280;13522;50.018;20.014;2023-03-23T16:47:42;98132.50;;;18.24;50.23
25664;BME280;13522;50.018;20.014;2023-03-23T16:50:55;98134.16;;;18.18;50.37
25664;BME280;13522;50.018;20.014;2023-03-23T16:54:07;98141.61;;;18.16;50.42
25664;BME280;13522;50.018;20.014;2023-03-23T16:57:21;98137.46;;;18.13;50.01
25664;BME280;13522;50.018;20.014;2023-03-23T17:00:35;98146.55;;;18.12;50.51
25664;BME280;13522;50.018;20.014;2023-03-23T17:03:47;98145.72;;;18.05;50.37
25664;BME280;13522;50.018;20.014;2023-03-23T17:07:00;98139.73;;;18.03;50.59
25664;BME280;13522;50.018;20.014;2023-03-23T17:10:14;98150.46;;;17.97;49.97
25664;BME280;13522;50.018;20.014;2023-03-23T17:13:27;98147.36;;;17.93;50.21
25664;BME280;13522;50.018;20.014;2023-03-23T17:16:39;98146.33;;;17.88;50.42
25664;BME280;13522;50.018;20.014;2023-03-23T17:19:52;98155.83;;;17.84;50.48